Airfield :
LOGIN :

Register | Disclaimer

   EN    FR    IT 

 










Legend :    VFR   Marginal VFR   IFR   Intensive IFR   Very Intensive IFR
Visi :
Ceiling :
>= 8 km
>= 3000ft
5 to 8 km
1000 to 3000 ft
1500m to 5 km
500 to 1000 ft
800 to 1500m
200 to 500 ft
< 800m
< 200 ft
Symbols :   Thunderstorms  Fog  Heavy snow  Heavy precipitations  Wind > 20 kt
SIGMETs :     Misc.  Thunderstorms  Icing  Turbulence  Mountain Waves  Volcanic Ashes






- Airport Elevation : 242 ft
- IATA code : DUB


EIDW - Dublin

CURRENT METAR :
  • 170330Z 27006KT CAVOK 05/04 Q1004 NOSIG

EXPIRED METARs :
  • 170300Z 28005KT CAVOK 05/04 Q1003 NOSIG
  • 170230Z 30007KT CAVOK 05/04 Q1003 NOSIG
  • 170200Z 29006KT CAVOK 06/04 Q1003 NOSIG
  • 170130Z 30008KT CAVOK 05/04 Q1002 NOSIG
  • 170100Z 31009KT CAVOK 06/04 Q1002 NOSIG
  • 170030Z 32008KT 9999 FEW020 07/05 Q1002 NOSIG

TAF TAF EIDW
Valid from the 17 at 00:00 until the 18 at 00:00 UTC


162300Z 1700/1724 31008KT 9999 FEW020 SCT030
BECMG 1709/1711 28011KT
TEMPO 1713/1718 -SHRA FEW020CB
PROB30
TEMPO 1715/1718 4000 SHRA



MET'MAP, your aeronautical weather chart ! - Copyright ORBIFLY December 2007 - Disclaimer

ORBIFLY MET'MAP TEAM :

Programming & Development : Alexandra Zaïnal
Concept & original design : Baudouin d'Aumeries
Assistance for programming : Marc-Olivier Méhu
Technical & hardware support : Manuel Goepfert

Contact : metmap@orbifly.com




SOURCES & CREDITS :

   NOAA